sensor_id;sensor_type;location;lat;lon;timestamp;P1;durP1;ratioP1;P2;durP2;ratioP2
39540;SDS011;25219;52.244;21.006;2023-03-24T00:01:37;6.82;;;3.92;;
39540;SDS011;25219;52.244;21.006;2023-03-24T00:04:03;7.82;;;4.43;;
39540;SDS011;25219;52.244;21.006;2023-03-24T00:06:28;6.30;;;3.55;;
39540;SDS011;25219;52.244;21.006;2023-03-24T00:08:58;7.10;;;4.10;;
39540;SDS011;25219;52.244;21.006;2023-03-24T00:11:24;8.27;;;4.35;;
39540;SDS011;25219;52.244;21.006;2023-03-24T00:13:50;6.45;;;4.45;;
39540;SDS011;25219;52.244;21.006;2023-03-24T00:16:15;8.38;;;4.22;;
39540;SDS011;25219;52.244;21.006;2023-03-24T00:18:43;9.25;;;4.47;;
39540;SDS011;25219;52.244;21.006;2023-03-24T00:21:09;6.65;;;4.47;;
39540;SDS011;25219;52.244;21.006;2023-03-24T00:23:35;8.27;;;4.60;;
39540;SDS011;25219;52.244;21.006;2023-03-24T00:26:01;10.60;;;5.20;;
39540;SDS011;25219;52.244;21.006;2023-03-24T00:28:28;9.00;;;4.93;;
39540;SDS011;25219;52.244;21.006;2023-03-24T00:30:53;8.60;;;4.13;;
39540;SDS011;25219;52.244;21.006;2023-03-24T00:33:19;9.88;;;4.78;;
39540;SDS011;25219;52.244;21.006;2023-03-24T00:35:44;9.77;;;4.60;;
39540;SDS011;25219;52.244;21.006;2023-03-24T00:38:12;9.63;;;4.97;;
39540;SDS011;25219;52.244;21.006;2023-03-24T00:40:37;9.60;;;5.00;;
39540;SDS011;25219;52.244;21.006;2023-03-24T00:43:03;7.15;;;4.35;;
39540;SDS011;25219;52.244;21.006;2023-03-24T00:45:28;8.00;;;4.30;;
39540;SDS011;25219;52.244;21.006;2023-03-24T00:47:58;9.40;;;4.47;;
39540;SDS011;25219;52.244;21.006;2023-03-24T00:50:23;14.98;;;5.82;;
39540;SDS011;25219;52.244;21.006;2023-03-24T00:52:51;7.63;;;4.53;;
39540;SDS011;25219;52.244;21.006;2023-03-24T00:55:16;8.82;;;4.30;;
39540;SDS011;25219;52.244;21.006;2023-03-24T00:57:43;8.52;;;4.70;;
39540;SDS011;25219;52.244;21.006;2023-03-24T01:00:15;7.22;;;4.47;;
39540;SDS011;25219;52.244;21.006;2023-03-24T01:02:43;10.82;;;4.78;;
39540;SDS011;25219;52.244;21.006;2023-03-24T01:05:10;7.70;;;4.35;;
39540;SDS011;25219;52.244;21.006;2023-03-24T01:07:35;8.93;;;4.60;;
39540;SDS011;25219;52.244;21.006;2023-03-24T01:10:05;8.73;;;4.45;;
39540;SDS011;25219;52.244;21.006;2023-03-24T01:12:33;8.52;;;4.80;;
39540;SDS011;25219;52.244;21.006;2023-03-24T01:15:02;9.23;;;4.45;;
39540;SDS011;25219;52.244;21.006;2023-03-24T01:17:29;9.00;;;4.00;;
39540;SDS011;25219;52.244;21.006;2023-03-24T01:19:55;7.82;;;4.43;;
39540;SDS011;25219;52.244;21.006;2023-03-24T01:22:21;10.18;;;4.15;;
39540;SDS011;25219;52.244;21.006;2023-03-24T01:24:47;7.35;;;4.30;;
39540;SDS011;25219;52.244;21.006;2023-03-24T01:27:13;10.02;;;4.18;;
39540;SDS011;25219;52.244;21.006;2023-03-24T01:29:38;11.45;;;4.65;;
39540;SDS011;25219;52.244;21.006;2023-03-24T01:32:04;9.13;;;4.63;;
39540;SDS011;25219;52.244;21.006;2023-03-24T01:34:29;9.93;;;4.75;;
39540;SDS011;25219;52.244;21.006;2023-03-24T01:36:55;11.20;;;4.70;;
39540;SDS011;25219;52.244;21.006;2023-03-24T01:39:21;7.80;;;4.22;;
39540;SDS011;25219;52.244;21.006;2023-03-24T01:41:46;9.38;;;4.60;;
39540;SDS011;25219;52.244;21.006;2023-03-24T01:44:32;7.43;;;4.40;;
39540;SDS011;25219;52.244;21.006;2023-03-24T01:46:57;10.70;;;5.10;;
39540;SDS011;25219;52.244;21.006;2023-03-24T01:49:24;9.32;;;4.45;;
39540;SDS011;25219;52.244;21.006;2023-03-24T01:51:57;10.73;;;4.97;;
39540;SDS011;25219;52.244;21.006;2023-03-24T01:54:34;7.13;;;4.30;;
39540;SDS011;25219;52.244;21.006;2023-03-24T01:59:26;6.90;;;4.10;;
39540;SDS011;25219;52.244;21.006;2023-03-24T02:01:53;6.68;;;3.80;;
39540;SDS011;25219;52.244;21.006;2023-03-24T02:04:27;7.07;;;4.22;;
39540;SDS011;25219;52.244;21.006;2023-03-24T02:06:52;12.55;;;4.18;;
39540;SDS011;25219;52.244;21.006;2023-03-24T02:09:17;9.23;;;4.72;;
39540;SDS011;25219;52.244;21.006;2023-03-24T02:11:43;8.95;;;4.68;;
39540;SDS011;25219;52.244;21.006;2023-03-24T02:14:08;8.93;;;4.72;;
39540;SDS011;25219;52.244;21.006;2023-03-24T02:37:32;8.75;;;3.72;;
39540;SDS011;25219;52.244;21.006;2023-03-24T02:40:06;8.82;;;4.63;;
39540;SDS011;25219;52.244;21.006;2023-03-24T02:49:56;8.70;;;4.78;;
39540;SDS011;25219;52.244;21.006;2023-03-24T02:55:08;8.77;;;3.80;;
39540;SDS011;25219;52.244;21.006;2023-03-24T02:57:41;8.90;;;5.07;;
39540;SDS011;25219;52.244;21.006;2023-03-24T03:02:39;7.57;;;4.45;;
39540;SDS011;25219;52.244;21.006;2023-03-24T03:05:19;10.68;;;4.30;;
39540;SDS011;25219;52.244;21.006;2023-03-24T03:07:46;7.55;;;4.65;;
39540;SDS011;25219;52.244;21.006;2023-03-24T03:10:17;12.18;;;4.30;;
39540;SDS011;25219;52.244;21.006;2023-03-24T03:12:45;7.43;;;4.13;;
39540;SDS011;25219;52.244;21.006;2023-03-24T03:15:15;7.65;;;3.88;;
39540;SDS011;25219;52.244;21.006;2023-03-24T03:17:50;7.53;;;3.83;;
39540;SDS011;25219;52.244;21.006;2023-03-24T03:20:18;6.07;;;3.97;;
39540;SDS011;25219;52.244;21.006;2023-03-24T03:22:49;8.50;;;4.03;;
39540;SDS011;25219;52.244;21.006;2023-03-24T03:25:17;8.82;;;4.15;;
39540;SDS011;25219;52.244;21.006;2023-03-24T03:27:46;8.18;;;4.10;;
39540;SDS011;25219;52.244;21.006;2023-03-24T03:30:17;9.25;;;4.25;;
39540;SDS011;25219;52.244;21.006;2023-03-24T03:32:46;6.43;;;3.55;;
39540;SDS011;25219;52.244;21.006;2023-03-24T03:40:24;7.13;;;3.85;;
39540;SDS011;25219;52.244;21.006;2023-03-24T03:42:50;7.30;;;4.38;;
39540;SDS011;25219;52.244;21.006;2023-03-24T03:45:16;5.65;;;3.63;;
39540;SDS011;25219;52.244;21.006;2023-03-24T03:47:41;8.50;;;4.00;;
39540;SDS011;25219;52.244;21.006;2023-03-24T03:50:07;6.10;;;3.88;;
39540;SDS011;25219;52.244;21.006;2023-03-24T03:52:36;8.25;;;4.40;;
39540;SDS011;25219;52.244;21.006;2023-03-24T03:55:04;7.05;;;3.67;;
39540;SDS011;25219;52.244;21.006;2023-03-24T03:57:30;7.30;;;3.95;;
39540;SDS011;25219;52.244;21.006;2023-03-24T03:59:55;7.70;;;3.63;;
39540;SDS011;25219;52.244;21.006;2023-03-24T04:07:21;7.23;;;3.53;;
39540;SDS011;25219;52.244;21.006;2023-03-24T04:15:12;6.63;;;3.60;;
39540;SDS011;25219;52.244;21.006;2023-03-24T04:17:44;6.80;;;4.25;;
39540;SDS011;25219;52.244;21.006;2023-03-24T04:20:15;10.68;;;4.20;;
39540;SDS011;25219;52.244;21.006;2023-03-24T04:23:03;5.03;;;3.28;;
39540;SDS011;25219;52.244;21.006;2023-03-24T04:28:22;7.45;;;3.95;;
39540;SDS011;25219;52.244;21.006;2023-03-24T04:30:57;8.60;;;4.13;;
39540;SDS011;25219;52.244;21.006;2023-03-24T04:38:23;7.30;;;4.53;;
39540;SDS011;25219;52.244;21.006;2023-03-24T04:40:52;8.77;;;4.05;;
39540;SDS011;25219;52.244;21.006;2023-03-24T04:43:19;5.95;;;3.92;;
39540;SDS011;25219;52.244;21.006;2023-03-24T04:45:45;7.75;;;4.10;;
39540;SDS011;25219;52.244;21.006;2023-03-24T04:48:14;9.98;;;4.70;;
39540;SDS011;25219;52.244;21.006;2023-03-24T04:50:42;7.32;;;4.20;;
39540;SDS011;25219;52.244;21.006;2023-03-24T04:53:07;8.68;;;4.38;;
39540;SDS011;25219;52.244;21.006;2023-03-24T04:58:01;8.27;;;4.47;;
39540;SDS011;25219;52.244;21.006;2023-03-24T05:00:27;5.70;;;3.90;;
39540;SDS011;25219;52.244;21.006;2023-03-24T05:02:52;10.45;;;4.65;;
39540;SDS011;25219;52.244;21.006;2023-03-24T05:05:17;7.25;;;3.90;;
39540;SDS011;25219;52.244;21.006;2023-03-24T05:07:43;8.75;;;4.10;;
39540;SDS011;25219;52.244;21.006;2023-03-24T05:10:08;7.72;;;4.13;;
39540;SDS011;25219;52.244;21.006;2023-03-24T05:12:34;10.57;;;4.82;;
39540;SDS011;25219;52.244;21.006;2023-03-24T05:14:59;8.15;;;4.20;;
39540;SDS011;25219;52.244;21.006;2023-03-24T05:17:25;6.90;;;4.25;;
39540;SDS011;25219;52.244;21.006;2023-03-24T05:19:50;8.80;;;5.03;;
39540;SDS011;25219;52.244;21.006;2023-03-24T05:22:15;10.80;;;5.18;;
39540;SDS011;25219;52.244;21.006;2023-03-24T05:24:41;7.83;;;4.53;;
39540;SDS011;25219;52.244;21.006;2023-03-24T05:27:06;10.90;;;5.37;;
39540;SDS011;25219;52.244;21.006;2023-03-24T05:29:32;8.05;;;4.45;;
39540;SDS011;25219;52.244;21.006;2023-03-24T05:31:57;10.00;;;5.05;;
39540;SDS011;25219;52.244;21.006;2023-03-24T05:34:22;12.98;;;6.63;;
39540;SDS011;25219;52.244;21.006;2023-03-24T05:36:47;11.85;;;6.55;;
39540;SDS011;25219;52.244;21.006;2023-03-24T05:39:13;13.50;;;6.33;;
39540;SDS011;25219;52.244;21.006;2023-03-24T05:41:38;11.15;;;6.85;;
39540;SDS011;25219;52.244;21.006;2023-03-24T05:44:03;15.17;;;7.47;;
39540;SDS011;25219;52.244;21.006;2023-03-24T05:46:28;13.05;;;6.25;;
39540;SDS011;25219;52.244;21.006;2023-03-24T05:48:54;14.73;;;7.55;;
39540;SDS011;25219;52.244;21.006;2023-03-24T05:51:19;14.10;;;6.55;;
39540;SDS011;25219;52.244;21.006;2023-03-24T05:53:45;16.15;;;7.03;;
39540;SDS011;25219;52.244;21.006;2023-03-24T05:56:10;14.05;;;7.32;;
39540;SDS011;25219;52.244;21.006;2023-03-24T05:58:36;17.50;;;7.75;;
39540;SDS011;25219;52.244;21.006;2023-03-24T06:01:06;17.50;;;7.90;;
39540;SDS011;25219;52.244;21.006;2023-03-24T06:03:32;16.27;;;7.07;;
39540;SDS011;25219;52.244;21.006;2023-03-24T06:05:58;11.85;;;6.88;;
39540;SDS011;25219;52.244;21.006;2023-03-24T06:08:23;13.80;;;6.97;;
39540;SDS011;25219;52.244;21.006;2023-03-24T06:10:48;15.47;;;7.27;;
39540;SDS011;25219;52.244;21.006;2023-03-24T06:13:14;15.98;;;7.30;;
39540;SDS011;25219;52.244;21.006;2023-03-24T06:15:39;15.23;;;7.28;;
39540;SDS011;25219;52.244;21.006;2023-03-24T06:18:06;12.90;;;7.38;;
39540;SDS011;25219;52.244;21.006;2023-03-24T06:20:32;15.05;;;7.53;;
39540;SDS011;25219;52.244;21.006;2023-03-24T06:22:57;14.57;;;7.78;;
39540;SDS011;25219;52.244;21.006;2023-03-24T06:25:23;13.68;;;7.85;;
39540;SDS011;25219;52.244;21.006;2023-03-24T06:27:51;15.80;;;7.47;;
39540;SDS011;25219;52.244;21.006;2023-03-24T06:30:16;12.05;;;6.97;;
39540;SDS011;25219;52.244;21.006;2023-03-24T06:32:42;13.43;;;7.57;;
39540;SDS011;25219;52.244;21.006;2023-03-24T06:35:11;20.30;;;7.30;;
39540;SDS011;25219;52.244;21.006;2023-03-24T06:37:36;12.10;;;6.85;;
39540;SDS011;25219;52.244;21.006;2023-03-24T06:40:01;14.80;;;7.47;;
39540;SDS011;25219;52.244;21.006;2023-03-24T06:42:27;14.43;;;7.43;;
39540;SDS011;25219;52.244;21.006;2023-03-24T06:44:52;12.73;;;7.75;;
39540;SDS011;25219;52.244;21.006;2023-03-24T06:47:17;16.27;;;7.82;;
39540;SDS011;25219;52.244;21.006;2023-03-24T06:49:43;14.93;;;7.60;;
39540;SDS011;25219;52.244;21.006;2023-03-24T06:52:08;14.70;;;8.10;;
39540;SDS011;25219;52.244;21.006;2023-03-24T06:54:33;15.70;;;7.63;;
39540;SDS011;25219;52.244;21.006;2023-03-24T06:56:58;13.50;;;7.20;;
39540;SDS011;25219;52.244;21.006;2023-03-24T06:59:24;16.40;;;7.38;;
39540;SDS011;25219;52.244;21.006;2023-03-24T07:01:52;14.05;;;6.93;;
39540;SDS011;25219;52.244;21.006;2023-03-24T07:04:18;21.90;;;7.35;;
39540;SDS011;25219;52.244;21.006;2023-03-24T07:06:43;14.30;;;7.00;;
39540;SDS011;25219;52.244;21.006;2023-03-24T07:09:09;12.40;;;7.03;;
39540;SDS011;25219;52.244;21.006;2023-03-24T07:11:36;17.77;;;7.72;;
39540;SDS011;25219;52.244;21.006;2023-03-24T07:14:01;16.42;;;7.15;;
39540;SDS011;25219;52.244;21.006;2023-03-24T07:16:26;13.85;;;6.22;;
39540;SDS011;25219;52.244;21.006;2023-03-24T07:18:51;15.00;;;7.05;;
39540;SDS011;25219;52.244;21.006;2023-03-24T07:21:17;10.90;;;6.83;;
39540;SDS011;25219;52.244;21.006;2023-03-24T07:23:42;18.10;;;7.38;;
39540;SDS011;25219;52.244;21.006;2023-03-24T07:26:08;16.00;;;7.05;;
39540;SDS011;25219;52.244;21.006;2023-03-24T07:28:33;15.67;;;6.03;;
39540;SDS011;25219;52.244;21.006;2023-03-24T07:31:01;13.32;;;6.75;;
39540;SDS011;25219;52.244;21.006;2023-03-24T07:33:26;13.10;;;6.50;;
39540;SDS011;25219;52.244;21.006;2023-03-24T07:35:55;11.27;;;6.15;;
39540;SDS011;25219;52.244;21.006;2023-03-24T07:38:21;15.77;;;6.50;;
39540;SDS011;25219;52.244;21.006;2023-03-24T07:40:46;14.55;;;6.78;;
39540;SDS011;25219;52.244;21.006;2023-03-24T07:43:12;11.75;;;6.22;;
39540;SDS011;25219;52.244;21.006;2023-03-24T07:45:37;10.93;;;6.18;;
39540;SDS011;25219;52.244;21.006;2023-03-24T07:48:02;12.75;;;5.93;;
39540;SDS011;25219;52.244;21.006;2023-03-24T07:50:28;13.60;;;5.72;;
39540;SDS011;25219;52.244;21.006;2023-03-24T07:52:53;11.45;;;6.03;;
39540;SDS011;25219;52.244;21.006;2023-03-24T07:55:19;17.17;;;5.93;;
39540;SDS011;25219;52.244;21.006;2023-03-24T07:57:45;12.50;;;6.10;;
39540;SDS011;25219;52.244;21.006;2023-03-24T08:00:11;9.70;;;5.47;;
39540;SDS011;25219;52.244;21.006;2023-03-24T08:02:40;10.35;;;5.78;;
39540;SDS011;25219;52.244;21.006;2023-03-24T08:05:06;12.45;;;5.50;;
39540;SDS011;25219;52.244;21.006;2023-03-24T08:07:31;15.82;;;5.95;;
39540;SDS011;25219;52.244;21.006;2023-03-24T08:09:57;12.13;;;6.70;;
39540;SDS011;25219;52.244;21.006;2023-03-24T08:12:22;10.07;;;6.67;;
39540;SDS011;25219;52.244;21.006;2023-03-24T08:14:47;14.82;;;6.45;;
39540;SDS011;25219;52.244;21.006;2023-03-24T08:17:12;10.70;;;6.70;;
39540;SDS011;25219;52.244;21.006;2023-03-24T08:19:37;9.00;;;5.90;;
39540;SDS011;25219;52.244;21.006;2023-03-24T08:22:03;13.10;;;6.60;;
39540;SDS011;25219;52.244;21.006;2023-03-24T08:24:28;13.37;;;6.23;;
39540;SDS011;25219;52.244;21.006;2023-03-24T08:26:53;8.95;;;6.20;;
39540;SDS011;25219;52.244;21.006;2023-03-24T08:29:22;9.55;;;6.13;;
39540;SDS011;25219;52.244;21.006;2023-03-24T08:31:48;11.23;;;5.95;;
39540;SDS011;25219;52.244;21.006;2023-03-24T08:34:13;13.88;;;7.13;;
39540;SDS011;25219;52.244;21.006;2023-03-24T08:36:38;13.57;;;6.80;;
39540;SDS011;25219;52.244;21.006;2023-03-24T08:39:05;9.85;;;6.93;;
39540;SDS011;25219;52.244;21.006;2023-03-24T08:41:34;9.38;;;6.30;;
39540;SDS011;25219;52.244;21.006;2023-03-24T08:44:00;11.57;;;6.60;;
39540;SDS011;25219;52.244;21.006;2023-03-24T08:46:27;11.02;;;7.07;;
39540;SDS011;25219;52.244;21.006;2023-03-24T08:48:52;11.95;;;6.70;;
39540;SDS011;25219;52.244;21.006;2023-03-24T08:51:18;14.87;;;6.80;;
39540;SDS011;25219;52.244;21.006;2023-03-24T08:53:43;15.55;;;7.45;;
39540;SDS011;25219;52.244;21.006;2023-03-24T08:56:08;14.50;;;6.25;;
39540;SDS011;25219;52.244;21.006;2023-03-24T08:58:34;14.73;;;6.82;;
39540;SDS011;25219;52.244;21.006;2023-03-24T09:01:00;9.98;;;6.15;;
39540;SDS011;25219;52.244;21.006;2023-03-24T09:03:25;14.65;;;6.65;;
39540;SDS011;25219;52.244;21.006;2023-03-24T09:05:53;12.57;;;6.80;;
39540;SDS011;25219;52.244;21.006;2023-03-24T09:08:20;9.60;;;5.85;;
39540;SDS011;25219;52.244;21.006;2023-03-24T09:10:46;17.60;;;7.18;;
39540;SDS011;25219;52.244;21.006;2023-03-24T09:13:11;10.77;;;6.65;;
39540;SDS011;25219;52.244;21.006;2023-03-24T09:15:37;13.15;;;6.80;;
39540;SDS011;25219;52.244;21.006;2023-03-24T09:18:02;13.88;;;6.18;;
39540;SDS011;25219;52.244;21.006;2023-03-24T09:20:27;12.45;;;6.78;;
39540;SDS011;25219;52.244;21.006;2023-03-24T09:22:53;12.13;;;6.95;;
39540;SDS011;25219;52.244;21.006;2023-03-24T09:25:20;13.70;;;7.00;;
39540;SDS011;25219;52.244;21.006;2023-03-24T09:27:45;13.77;;;6.57;;
39540;SDS011;25219;52.244;21.006;2023-03-24T09:30:12;12.70;;;6.00;;
39540;SDS011;25219;52.244;21.006;2023-03-24T09:32:37;13.75;;;6.88;;
39540;SDS011;25219;52.244;21.006;2023-03-24T09:35:03;11.10;;;6.57;;
39540;SDS011;25219;52.244;21.006;2023-03-24T09:37:29;12.98;;;6.68;;
39540;SDS011;25219;52.244;21.006;2023-03-24T09:39:54;11.30;;;6.25;;
39540;SDS011;25219;52.244;21.006;2023-03-24T09:42:21;12.15;;;6.80;;
39540;SDS011;25219;52.244;21.006;2023-03-24T09:44:47;8.90;;;6.05;;
39540;SDS011;25219;52.244;21.006;2023-03-24T09:49:54;9.25;;;5.97;;
39540;SDS011;25219;52.244;21.006;2023-03-24T09:52:33;10.90;;;5.97;;
39540;SDS011;25219;52.244;21.006;2023-03-24T09:54:59;9.65;;;5.93;;
39540;SDS011;25219;52.244;21.006;2023-03-24T09:57:39;8.80;;;6.13;;
39540;SDS011;25219;52.244;21.006;2023-03-24T10:00:15;9.25;;;5.50;;
39540;SDS011;25219;52.244;21.006;2023-03-24T10:02:41;16.08;;;6.47;;
39540;SDS011;25219;52.244;21.006;2023-03-24T10:05:40;9.30;;;6.50;;
39540;SDS011;25219;52.244;21.006;2023-03-24T10:08:09;10.38;;;6.03;;
39540;SDS011;25219;52.244;21.006;2023-03-24T10:10:40;9.23;;;6.30;;
39540;SDS011;25219;52.244;21.006;2023-03-24T10:13:16;9.48;;;5.25;;
39540;SDS011;25219;52.244;21.006;2023-03-24T10:16:06;9.15;;;6.38;;
39540;SDS011;25219;52.244;21.006;2023-03-24T10:18:31;9.50;;;6.10;;
39540;SDS011;25219;52.244;21.006;2023-03-24T10:21:20;10.35;;;6.03;;
39540;SDS011;25219;52.244;21.006;2023-03-24T10:23:50;9.77;;;5.95;;
39540;SDS011;25219;52.244;21.006;2023-03-24T10:28:43;9.23;;;5.97;;
39540;SDS011;25219;52.244;21.006;2023-03-24T10:31:13;9.52;;;5.65;;
39540;SDS011;25219;52.244;21.006;2023-03-24T10:33:42;10.43;;;6.18;;
39540;SDS011;25219;52.244;21.006;2023-03-24T10:36:17;10.77;;;6.45;;
39540;SDS011;25219;52.244;21.006;2023-03-24T10:38:44;12.35;;;6.15;;
39540;SDS011;25219;52.244;21.006;2023-03-24T10:41:20;9.77;;;6.25;;
39540;SDS011;25219;52.244;21.006;2023-03-24T10:43:46;9.88;;;6.03;;
39540;SDS011;25219;52.244;21.006;2023-03-24T10:46:13;10.45;;;6.18;;
39540;SDS011;25219;52.244;21.006;2023-03-24T10:48:44;12.80;;;5.93;;
39540;SDS011;25219;52.244;21.006;2023-03-24T10:53:44;10.13;;;5.68;;
39540;SDS011;25219;52.244;21.006;2023-03-24T10:56:16;11.57;;;6.20;;
39540;SDS011;25219;52.244;21.006;2023-03-24T10:58:42;15.10;;;6.53;;
39540;SDS011;25219;52.244;21.006;2023-03-24T11:01:22;12.73;;;5.82;;
39540;SDS011;25219;52.244;21.006;2023-03-24T11:03:48;8.63;;;5.93;;
39540;SDS011;25219;52.244;21.006;2023-03-24T11:06:18;9.70;;;5.53;;
39540;SDS011;25219;52.244;21.006;2023-03-24T11:08:43;10.70;;;5.57;;
39540;SDS011;25219;52.244;21.006;2023-03-24T11:11:28;11.02;;;6.47;;
39540;SDS011;25219;52.244;21.006;2023-03-24T11:13:55;10.98;;;5.95;;
39540;SDS011;25219;52.244;21.006;2023-03-24T11:16:25;11.13;;;6.55;;
39540;SDS011;25219;52.244;21.006;2023-03-24T11:19:02;11.02;;;5.93;;
39540;SDS011;25219;52.244;21.006;2023-03-24T11:21:28;10.25;;;6.53;;
39540;SDS011;25219;52.244;21.006;2023-03-24T11:23:56;11.25;;;6.18;;
39540;SDS011;25219;52.244;21.006;2023-03-24T11:26:22;12.73;;;6.20;;
39540;SDS011;25219;52.244;21.006;2023-03-24T11:28:53;9.48;;;5.70;;
39540;SDS011;25219;52.244;21.006;2023-03-24T11:31:20;8.38;;;5.78;;
39540;SDS011;25219;52.244;21.006;2023-03-24T11:33:55;13.07;;;6.28;;
39540;SDS011;25219;52.244;21.006;2023-03-24T11:38:59;11.93;;;5.95;;
39540;SDS011;25219;52.244;21.006;2023-03-24T11:41:25;15.52;;;6.40;;
39540;SDS011;25219;52.244;21.006;2023-03-24T11:43:57;10.68;;;6.25;;
39540;SDS011;25219;52.244;21.006;2023-03-24T11:48:57;13.10;;;6.47;;
39540;SDS011;25219;52.244;21.006;2023-03-24T11:51:27;13.00;;;5.82;;
39540;SDS011;25219;52.244;21.006;2023-03-24T11:53:54;11.85;;;5.70;;
39540;SDS011;25219;52.244;21.006;2023-03-24T11:56:26;9.25;;;5.85;;
39540;SDS011;25219;52.244;21.006;2023-03-24T11:59:02;11.07;;;5.90;;
39540;SDS011;25219;52.244;21.006;2023-03-24T12:01:36;12.02;;;6.25;;
39540;SDS011;25219;52.244;21.006;2023-03-24T12:17:04;11.70;;;5.75;;
39540;SDS011;25219;52.244;21.006;2023-03-24T12:22:17;13.55;;;5.53;;
39540;SDS011;25219;52.244;21.006;2023-03-24T12:30:01;7.85;;;5.22;;
39540;SDS011;25219;52.244;21.006;2023-03-24T12:42:26;7.10;;;4.32;;
39540;SDS011;25219;52.244;21.006;2023-03-24T12:57:16;6.43;;;3.72;;
39540;SDS011;25219;52.244;21.006;2023-03-24T12:59:48;8.93;;;3.25;;
39540;SDS011;25219;52.244;21.006;2023-03-24T13:02:31;6.75;;;3.90;;
39540;SDS011;25219;52.244;21.006;2023-03-24T13:05:02;6.25;;;4.05;;
39540;SDS011;25219;52.244;21.006;2023-03-24T13:07:29;9.75;;;5.10;;
39540;SDS011;25219;52.244;21.006;2023-03-24T13:12:46;5.93;;;3.55;;
39540;SDS011;25219;52.244;21.006;2023-03-24T13:15:16;4.72;;;3.05;;
39540;SDS011;25219;52.244;21.006;2023-03-24T13:20:24;5.20;;;3.30;;
39540;SDS011;25219;52.244;21.006;2023-03-24T13:22:50;7.65;;;2.92;;
39540;SDS011;25219;52.244;21.006;2023-03-24T13:25:21;7.03;;;2.95;;
39540;SDS011;25219;52.244;21.006;2023-03-24T13:27:49;5.32;;;2.92;;
39540;SDS011;25219;52.244;21.006;2023-03-24T13:30:29;4.53;;;2.80;;
39540;SDS011;25219;52.244;21.006;2023-03-24T13:33:01;5.28;;;2.80;;
39540;SDS011;25219;52.244;21.006;2023-03-24T13:35:48;6.65;;;3.53;;
39540;SDS011;25219;52.244;21.006;2023-03-24T13:38:16;5.85;;;3.13;;
39540;SDS011;25219;52.244;21.006;2023-03-24T13:40:43;7.65;;;2.60;;
39540;SDS011;25219;52.244;21.006;2023-03-24T13:45:40;4.50;;;2.63;;
39540;SDS011;25219;52.244;21.006;2023-03-24T13:53:12;4.97;;;2.30;;
39540;SDS011;25219;52.244;21.006;2023-03-24T13:55:38;5.85;;;2.80;;
39540;SDS011;25219;52.244;21.006;2023-03-24T13:58:10;4.53;;;2.63;;
39540;SDS011;25219;52.244;21.006;2023-03-24T14:06:16;4.65;;;2.38;;
39540;SDS011;25219;52.244;21.006;2023-03-24T14:14:16;6.65;;;2.65;;
39540;SDS011;25219;52.244;21.006;2023-03-24T14:19:16;5.65;;;1.98;;
39540;SDS011;25219;52.244;21.006;2023-03-24T14:21:44;3.20;;;2.38;;
39540;SDS011;25219;52.244;21.006;2023-03-24T14:24:20;6.80;;;2.35;;
39540;SDS011;25219;52.244;21.006;2023-03-24T14:26:46;3.70;;;2.43;;
39540;SDS011;25219;52.244;21.006;2023-03-24T14:32:00;5.20;;;2.08;;
39540;SDS011;25219;52.244;21.006;2023-03-24T14:34:25;12.70;;;2.58;;
39540;SDS011;25219;52.244;21.006;2023-03-24T14:36:58;4.32;;;2.55;;
39540;SDS011;25219;52.244;21.006;2023-03-24T14:39:40;3.28;;;2.35;;
39540;SDS011;25219;52.244;21.006;2023-03-24T14:44:51;5.15;;;2.40;;
39540;SDS011;25219;52.244;21.006;2023-03-24T14:47:17;4.65;;;2.28;;
39540;SDS011;25219;52.244;21.006;2023-03-24T14:49:44;3.85;;;2.30;;
39540;SDS011;25219;52.244;21.006;2023-03-24T14:54:49;8.20;;;2.28;;
39540;SDS011;25219;52.244;21.006;2023-03-24T15:02:52;4.72;;;2.00;;
39540;SDS011;25219;52.244;21.006;2023-03-24T15:11:06;6.38;;;2.05;;
39540;SDS011;25219;52.244;21.006;2023-03-24T15:13:42;3.00;;;1.90;;
39540;SDS011;25219;52.244;21.006;2023-03-24T15:18:44;5.10;;;2.03;;
39540;SDS011;25219;52.244;21.006;2023-03-24T15:21:56;3.78;;;2.00;;
39540;SDS011;25219;52.244;21.006;2023-03-24T15:23:59;7.80;;;2.13;;
39540;SDS011;25219;52.244;21.006;2023-03-24T15:26:29;3.67;;;1.95;;
39540;SDS011;25219;52.244;21.006;2023-03-24T15:28:55;3.72;;;2.28;;
39540;SDS011;25219;52.244;21.006;2023-03-24T15:31:22;2.05;;;1.70;;
39540;SDS011;25219;52.244;21.006;2023-03-24T15:33:49;8.10;;;2.10;;
39540;SDS011;25219;52.244;21.006;2023-03-24T15:36:15;4.32;;;2.33;;
39540;SDS011;25219;52.244;21.006;2023-03-24T15:38:46;3.30;;;2.00;;
39540;SDS011;25219;52.244;21.006;2023-03-24T15:43:43;3.38;;;1.88;;
39540;SDS011;25219;52.244;21.006;2023-03-24T15:49:03;3.42;;;1.98;;
39540;SDS011;25219;52.244;21.006;2023-03-24T15:51:47;3.50;;;2.20;;
39540;SDS011;25219;52.244;21.006;2023-03-24T15:54:20;3.03;;;2.20;;
39540;SDS011;25219;52.244;21.006;2023-03-24T15:56:57;4.20;;;2.45;;
39540;SDS011;25219;52.244;21.006;2023-03-24T15:59:23;4.00;;;2.05;;
39540;SDS011;25219;52.244;21.006;2023-03-24T16:01:48;7.32;;;2.50;;
39540;SDS011;25219;52.244;21.006;2023-03-24T16:04:14;4.00;;;2.38;;
39540;SDS011;25219;52.244;21.006;2023-03-24T16:06:41;4.78;;;2.33;;
39540;SDS011;25219;52.244;21.006;2023-03-24T16:09:10;4.05;;;2.13;;
39540;SDS011;25219;52.244;21.006;2023-03-24T16:11:37;4.32;;;2.65;;
39540;SDS011;25219;52.244;21.006;2023-03-24T16:14:09;7.45;;;2.30;;
39540;SDS011;25219;52.244;21.006;2023-03-24T16:16:35;3.33;;;2.25;;
39540;SDS011;25219;52.244;21.006;2023-03-24T16:19:02;8.80;;;2.95;;
39540;SDS011;25219;52.244;21.006;2023-03-24T16:21:28;5.03;;;2.78;;
39540;SDS011;25219;52.244;21.006;2023-03-24T16:23:54;5.78;;;2.72;;
39540;SDS011;25219;52.244;21.006;2023-03-24T16:28:45;3.70;;;2.50;;
39540;SDS011;25219;52.244;21.006;2023-03-24T16:31:19;8.65;;;3.55;;
39540;SDS011;25219;52.244;21.006;2023-03-24T16:33:47;3.90;;;2.80;;
39540;SDS011;25219;52.244;21.006;2023-03-24T16:36:12;3.60;;;2.75;;
39540;SDS011;25219;52.244;21.006;2023-03-24T16:38:39;7.35;;;3.40;;
39540;SDS011;25219;52.244;21.006;2023-03-24T16:41:04;4.23;;;2.90;;
39540;SDS011;25219;52.244;21.006;2023-03-24T16:43:29;4.30;;;2.80;;
39540;SDS011;25219;52.244;21.006;2023-03-24T16:45:57;17.52;;;4.88;;
39540;SDS011;25219;52.244;21.006;2023-03-24T16:48:22;6.07;;;3.10;;
39540;SDS011;25219;52.244;21.006;2023-03-24T16:50:48;8.13;;;3.22;;
39540;SDS011;25219;52.244;21.006;2023-03-24T16:53:15;9.40;;;3.33;;
39540;SDS011;25219;52.244;21.006;2023-03-24T16:55:41;9.68;;;3.72;;
39540;SDS011;25219;52.244;21.006;2023-03-24T16:58:09;6.43;;;3.13;;
39540;SDS011;25219;52.244;21.006;2023-03-24T17:00:34;7.38;;;3.55;;
39540;SDS011;25219;52.244;21.006;2023-03-24T17:03:03;4.68;;;3.50;;
39540;SDS011;25219;52.244;21.006;2023-03-24T17:05:30;5.28;;;3.63;;
39540;SDS011;25219;52.244;21.006;2023-03-24T17:07:58;6.07;;;3.47;;
39540;SDS011;25219;52.244;21.006;2023-03-24T17:10:25;7.22;;;4.05;;
39540;SDS011;25219;52.244;21.006;2023-03-24T17:12:53;6.30;;;4.35;;
39540;SDS011;25219;52.244;21.006;2023-03-24T17:15:28;6.25;;;4.53;;
39540;SDS011;25219;52.244;21.006;2023-03-24T17:17:54;11.13;;;4.75;;
39540;SDS011;25219;52.244;21.006;2023-03-24T17:20:20;7.97;;;4.38;;
39540;SDS011;25219;52.244;21.006;2023-03-24T17:22:46;13.23;;;5.50;;
39540;SDS011;25219;52.244;21.006;2023-03-24T17:25:13;12.50;;;5.75;;
39540;SDS011;25219;52.244;21.006;2023-03-24T17:27:38;9.35;;;5.43;;